Weather at El Mirage-Village Square Airport [CLOSED]

Public forecast

Using degrees Fahrenheit for public forecast. Weather courtesy of forecast.io.

Closest aviation weather report (METAR) to El Mirage-Village Square Airport

Closest report is Luke Air Force Base, 5.3 nm (9.7 km) SSW. Retrieved 2021/06/20 02:58 UTC (23 minutes ago):

KLUF 200258Z AUTO 22012KT 10SM CLR 42/08 A2955 RMK AO2 SLP988 T04170076 53003

Closest aviation forecast (TAF) to El Mirage-Village Square Airport

Forecast is more than 12 hours old.

Closest forecast is Luke Air Force Base, 5.3 nm (9.7 km) SSW. Retrieved 2021/06/18 20:25 UTC (1 day ago):

TAF KLUF 182000Z 1820/2002 VRB06KT 9999 FEW200 QNH2961INS BECMG 1820/1821 22012G18KT 9999 FEW180 QNH2956INS BECMG 1901/1902 VRB06KT 9999 FEW200 QNH2963INS TEMPO 1922/2002 24010G15KT TX47/1823Z TN30/1913Z LAST NO AMDS AFT 1902 NEXT 2112